createdAt,value
2022-11-02T00:00:56.185Z,5.22
2022-11-02T00:03:24.972Z,7.15
2022-11-02T00:05:55.745Z,7.90
2022-11-02T00:08:23.809Z,4.75
2022-11-02T00:10:54.425Z,5.90
2022-11-02T00:13:22.593Z,4.32
2022-11-02T00:15:50.834Z,4.20
2022-11-02T00:18:18.938Z,6.40
2022-11-02T00:20:47.091Z,3.72
2022-11-02T00:23:16.990Z,5.03
2022-11-02T00:25:49.213Z,3.30
2022-11-02T00:28:17.706Z,5.47
2022-11-02T00:30:46.124Z,2.78
2022-11-02T00:33:14.449Z,3.83
2022-11-02T00:35:45.128Z,3.72
2022-11-02T00:38:13.681Z,5.13
2022-11-02T00:40:45.760Z,5.38
2022-11-02T00:43:14.110Z,5.35
2022-11-02T00:45:42.204Z,3.28
2022-11-02T00:48:12.639Z,6.28
2022-11-02T00:50:40.618Z,5.53
2022-11-02T00:53:08.711Z,7.22
2022-11-02T00:55:36.847Z,7.20
2022-11-02T00:58:06.595Z,6.65
2022-11-02T01:00:35.047Z,4.75
2022-11-02T01:03:03.333Z,5.97
2022-11-02T01:05:31.813Z,6.53
2022-11-02T01:07:59.896Z,5.72
2022-11-02T01:10:28.169Z,7.35
2022-11-02T01:12:56.179Z,7.53
2022-11-02T01:15:25.611Z,7.03
2022-11-02T01:17:54.304Z,5.75
2022-11-02T01:20:22.312Z,7.90
2022-11-02T01:22:50.364Z,6.80
2022-11-02T01:25:19.101Z,8.52
2022-11-02T01:27:50.217Z,5.20
2022-11-02T01:30:18.649Z,9.15
2022-11-02T01:32:48.026Z,4.38
2022-11-02T01:35:18.006Z,8.40
2022-11-02T01:37:46.036Z,6.43
2022-11-02T01:40:14.026Z,7.82
2022-11-02T01:42:42.159Z,6.03
2022-11-02T01:45:13.063Z,7.13
2022-11-02T01:47:47.184Z,5.72
2022-11-02T01:50:24.278Z,3.35
2022-11-02T01:52:52.732Z,10.77
2022-11-02T01:55:24.872Z,9.70
2022-11-02T01:57:58.149Z,5.70
2022-11-02T02:00:26.322Z,7.65
2022-11-02T02:03:00.639Z,5.43
2022-11-02T02:05:32.117Z,5.50
2022-11-02T02:08:02.441Z,5.20
2022-11-02T02:10:30.836Z,6.68
2022-11-02T02:12:58.998Z,5.10
2022-11-02T02:15:37.888Z,5.35
2022-11-02T02:18:14.475Z,6.13
2022-11-02T02:21:04.936Z,7.97
2022-11-02T02:23:55.634Z,6.45
2022-11-02T02:27:00.275Z,7.43
2022-11-02T02:29:34.703Z,6.00
2022-11-02T02:32:10.219Z,5.57
2022-11-02T02:34:46.887Z,6.00
2022-11-02T02:37:20.093Z,6.35
2022-11-02T02:39:53.680Z,5.60
2022-11-02T02:42:26.763Z,6.13
2022-11-02T02:45:05.456Z,7.22
2022-11-02T02:47:36.461Z,9.00
2022-11-02T02:50:12.455Z,6.20
2022-11-02T02:52:42.189Z,8.15
2022-11-02T02:55:17.281Z,12.68
2022-11-02T02:57:47.626Z,6.18
2022-11-02T03:00:19.262Z,5.78
2022-11-02T03:03:01.102Z,7.93
2022-11-02T03:05:32.115Z,4.57
2022-11-02T03:08:05.059Z,7.60
2022-11-02T03:10:42.906Z,6.05
2022-11-02T03:13:29.282Z,5.32
2022-11-02T03:16:04.130Z,6.13
2022-11-02T03:18:41.222Z,5.28
2022-11-02T03:21:19.043Z,5.80
2022-11-02T03:23:53.850Z,6.38
2022-11-02T03:26:27.963Z,4.00
2022-11-02T03:29:02.646Z,8.27
2022-11-02T03:31:39.522Z,6.28
2022-11-02T03:34:16.867Z,5.75
2022-11-02T03:36:51.101Z,8.48
2022-11-02T03:39:22.303Z,8.07
2022-11-02T03:41:52.301Z,7.65
2022-11-02T03:44:25.174Z,3.17
2022-11-02T03:47:00.213Z,6.10
2022-11-02T03:49:30.852Z,6.78
2022-11-02T03:52:04.006Z,8.48
2022-11-02T03:54:42.546Z,12.32
2022-11-02T03:57:15.954Z,4.22
2022-11-02T03:59:44.417Z,8.73
2022-11-02T04:02:15.883Z,4.63
2022-11-02T04:04:51.749Z,5.30
2022-11-02T04:07:23.478Z,6.00
2022-11-02T04:09:51.533Z,8.10
2022-11-02T04:12:45.161Z,4.13
2022-11-02T04:15:13.286Z,6.45
2022-11-02T04:18:00.362Z,7.20
2022-11-02T04:20:28.347Z,6.43
2022-11-02T04:23:13.950Z,9.82
2022-11-02T04:25:41.952Z,6.50
2022-11-02T04:28:10.789Z,6.97
2022-11-02T04:30:38.825Z,8.70
2022-11-02T04:33:25.313Z,6.68
2022-11-02T04:35:53.270Z,6.40
2022-11-02T04:38:38.922Z,4.13
2022-11-02T04:41:24.388Z,5.78
2022-11-02T04:43:52.480Z,5.35
2022-11-02T04:46:22.949Z,5.05
2022-11-02T04:48:52.829Z,7.78
2022-11-02T04:51:21.660Z,6.95
2022-11-02T04:53:49.671Z,7.38
2022-11-02T04:56:18.031Z,13.80
2022-11-02T04:58:50.970Z,7.13
2022-11-02T05:01:20.728Z,7.95
2022-11-02T05:03:49.322Z,5.70
2022-11-02T05:06:19.253Z,6.75
2022-11-02T05:08:47.580Z,3.75
2022-11-02T05:11:15.809Z,6.63
2022-11-02T05:13:44.675Z,6.53
2022-11-02T05:16:19.691Z,5.00
2022-11-02T05:18:49.199Z,4.30
2022-11-02T05:21:18.835Z,5.93
2022-11-02T05:23:46.941Z,5.07
2022-11-02T05:26:15.122Z,4.88
2022-11-02T05:28:46.245Z,5.97
2022-11-02T05:31:14.315Z,6.47
2022-11-02T05:33:45.607Z,7.57
2022-11-02T05:36:13.839Z,5.47
2022-11-02T05:38:47.340Z,7.28
2022-11-02T05:41:15.359Z,7.22
2022-11-02T05:43:43.532Z,6.63
2022-11-02T05:46:11.549Z,3.72
2022-11-02T05:48:39.574Z,7.82
2022-11-02T05:51:07.898Z,10.65
2022-11-02T05:53:38.554Z,9.02
2022-11-02T05:56:12.174Z,6.90
2022-11-02T05:58:42.499Z,5.32
2022-11-02T06:01:13.857Z,8.00
2022-11-02T06:03:53.419Z,5.65
2022-11-02T06:06:40.993Z,7.72
2022-11-02T06:09:26.681Z,5.88
2022-11-02T06:11:57.310Z,4.75
2022-11-02T06:14:26.974Z,5.13
2022-11-02T06:16:59.437Z,6.15
2022-11-02T06:19:29.608Z,12.75
2022-11-02T06:22:05.649Z,4.68
2022-11-02T06:24:44.779Z,8.55
2022-11-02T06:27:18.217Z,7.03
2022-11-02T06:30:01.292Z,4.30
2022-11-02T06:55:20.024Z,6.10
2022-11-02T07:55:53.847Z,9.20
2022-11-02T07:58:39.650Z,8.95
2022-11-02T08:01:13.677Z,7.30
2022-11-02T08:04:07.448Z,7.70
2022-11-02T08:06:49.475Z,4.63
2022-11-02T08:09:46.011Z,5.60
2022-11-02T08:12:38.231Z,6.60
2022-11-02T08:15:13.807Z,7.22
2022-11-02T08:17:46.767Z,9.85
2022-11-02T08:20:20.411Z,5.38
2022-11-02T08:22:55.939Z,6.10
2022-11-02T08:25:31.429Z,9.82
2022-11-02T08:31:45.829Z,10.82
2022-11-02T08:34:15.456Z,11.75
2022-11-02T08:50:56.945Z,8.13
2022-11-02T08:53:31.760Z,9.63
2022-11-02T08:56:22.499Z,15.23
2022-11-02T08:59:10.425Z,5.63
2022-11-02T09:02:06.416Z,9.23
2022-11-02T09:14:33.482Z,14.48
2022-11-02T09:22:13.109Z,6.82
2022-11-02T09:25:55.675Z,9.88
2022-11-02T09:29:05.992Z,8.90
2022-11-02T09:32:38.631Z,5.28
2022-11-02T09:53:51.490Z,10.40
2022-11-02T10:14:41.856Z,7.57
2022-11-02T10:25:47.923Z,6.22
2022-11-02T10:30:49.876Z,10.18
2022-11-02T10:40:59.937Z,7.80
2022-11-02T10:51:18.306Z,8.80
2022-11-02T10:54:02.229Z,6.50
2022-11-02T10:57:14.460Z,6.40
2022-11-02T11:00:16.141Z,8.85
2022-11-02T11:03:48.814Z,6.50
2022-11-02T11:07:19.789Z,6.07
2022-11-02T11:10:53.368Z,7.22
2022-11-02T11:16:52.421Z,9.52
2022-11-02T11:19:39.590Z,7.90
2022-11-02T11:22:30.673Z,8.73
2022-11-02T11:25:28.732Z,14.23
2022-11-02T11:28:29.394Z,7.60
2022-11-02T11:34:30.701Z,7.43
2022-11-02T11:37:57.836Z,8.02
2022-11-02T11:44:47.916Z,5.25
2022-11-02T11:47:16.999Z,7.00
2022-11-02T11:53:29.727Z,6.38
2022-11-02T11:56:01.883Z,7.60
2022-11-02T11:58:31.190Z,5.80
2022-11-02T12:01:18.313Z,4.88
2022-11-02T12:03:54.257Z,7.18
2022-11-02T12:06:29.796Z,4.90
2022-11-02T12:09:08.115Z,6.40
2022-11-02T12:11:51.473Z,7.10
2022-11-02T12:14:45.325Z,5.95
2022-11-02T12:17:36.941Z,6.05
2022-11-02T12:24:31.166Z,10.40
2022-11-02T12:36:15.416Z,6.88
2022-11-02T12:50:41.510Z,6.57
2022-11-02T12:53:31.805Z,8.15
2022-11-02T12:56:13.544Z,8.32
2022-11-02T12:58:44.846Z,6.70
2022-11-02T13:01:22.490Z,6.22
2022-11-02T13:04:01.482Z,8.23
2022-11-02T13:06:42.856Z,6.20
2022-11-02T13:09:19.243Z,6.65
2022-11-02T13:11:52.683Z,9.07
2022-11-02T13:14:36.567Z,11.07
2022-11-02T13:17:28.765Z,10.25
2022-11-02T13:20:04.006Z,7.75
2022-11-02T13:23:03.998Z,7.05
2022-11-02T13:26:11.910Z,5.22
2022-11-02T13:28:53.844Z,5.13
2022-11-02T13:31:32.420Z,7.78
2022-11-02T13:34:04.078Z,8.73
2022-11-02T13:36:33.234Z,7.18
2022-11-02T13:39:07.311Z,6.80
2022-11-02T13:41:52.341Z,8.35
2022-11-02T13:45:00.856Z,12.10
2022-11-02T13:47:53.075Z,4.72
2022-11-02T13:50:26.903Z,8.05
2022-11-02T13:53:01.901Z,7.47
2022-11-02T13:55:45.547Z,6.82
2022-11-02T13:58:28.928Z,6.53
2022-11-02T14:01:03.122Z,4.55
2022-11-02T14:03:42.308Z,3.55
2022-11-02T14:06:16.627Z,7.55
2022-11-02T14:08:53.866Z,7.57
2022-11-02T14:12:07.510Z,9.27
2022-11-02T14:14:47.420Z,18.67
2022-11-02T14:17:33.921Z,83.35
2022-11-02T14:20:41.324Z,61.05
2022-11-02T14:23:43.209Z,54.53
2022-11-02T14:26:42.147Z,20.92
2022-11-02T14:29:50.113Z,24.13
2022-11-02T14:32:44.269Z,9.50
2022-11-02T14:35:29.220Z,14.07
2022-11-02T14:38:13.721Z,20.42
2022-11-02T14:40:53.381Z,13.32
2022-11-02T14:43:51.689Z,16.70
2022-11-02T14:46:38.490Z,14.63
2022-11-02T14:49:16.266Z,23.80
2022-11-02T14:51:45.365Z,12.15
2022-11-02T14:54:28.745Z,15.27
2022-11-02T14:57:01.827Z,43.70
2022-11-02T15:00:08.642Z,35.63
2022-11-02T15:02:43.418Z,29.15
2022-11-02T15:05:32.295Z,40.85
2022-11-02T15:08:06.852Z,32.15
2022-11-02T15:10:51.389Z,17.15
2022-11-02T15:13:57.215Z,17.00
2022-11-02T15:16:41.062Z,9.57
2022-11-02T15:19:47.841Z,13.90
2022-11-02T15:22:38.940Z,22.00
2022-11-02T15:25:14.630Z,13.32
2022-11-02T15:27:44.695Z,7.75
2022-11-02T15:31:11.870Z,7.60
2022-11-02T15:41:46.865Z,6.50
2022-11-02T15:44:53.444Z,12.65
2022-11-02T15:47:34.991Z,14.85
2022-11-02T15:50:21.457Z,7.68
2022-11-02T15:53:24.510Z,4.00
2022-11-02T15:56:11.878Z,7.07
2022-11-02T15:59:07.697Z,7.72
2022-11-02T16:01:43.157Z,6.28
2022-11-02T16:04:24.103Z,9.52
2022-11-02T16:06:56.033Z,15.60
2022-11-02T16:09:38.799Z,15.70
2022-11-02T16:12:34.173Z,17.55
2022-11-02T16:15:14.013Z,13.40
2022-11-02T16:18:01.049Z,9.52
2022-11-02T16:20:41.630Z,9.13
2022-11-02T16:23:26.648Z,7.30
2022-11-02T16:26:17.903Z,22.25
2022-11-02T16:28:51.248Z,40.17
2022-11-02T16:31:22.839Z,31.08
2022-11-02T16:33:53.449Z,18.08
2022-11-02T16:36:23.757Z,11.25
2022-11-02T16:39:00.073Z,7.82
2022-11-02T16:41:30.048Z,8.13
2022-11-02T16:47:51.809Z,8.00
2022-11-02T16:50:21.226Z,10.75
2022-11-02T16:52:56.262Z,10.55
2022-11-02T16:55:40.483Z,9.55
2022-11-02T16:58:14.773Z,6.88
2022-11-02T17:00:55.423Z,4.63
2022-11-02T17:03:27.862Z,7.82
2022-11-02T17:05:58.014Z,8.30
2022-11-02T17:08:37.463Z,7.43
2022-11-02T17:11:07.445Z,5.18
2022-11-02T17:13:38.368Z,9.25
2022-11-02T17:16:10.265Z,3.80
2022-11-02T17:18:40.061Z,7.32
2022-11-02T17:21:29.594Z,6.68
2022-11-02T17:24:00.814Z,6.20
2022-11-02T17:26:35.415Z,5.18
2022-11-02T17:29:24.827Z,7.10
2022-11-02T17:31:56.720Z,9.15
2022-11-02T17:34:32.066Z,7.07
2022-11-02T17:37:00.172Z,7.13
2022-11-02T17:39:28.220Z,5.85
2022-11-02T17:42:16.969Z,9.43
2022-11-02T17:44:52.113Z,7.22
2022-11-02T17:47:49.716Z,7.40
2022-11-02T17:50:19.870Z,9.20
2022-11-02T17:52:53.454Z,7.68
2022-11-02T17:55:26.729Z,4.97
2022-11-02T17:58:09.399Z,6.82
2022-11-02T18:00:40.859Z,6.78
2022-11-02T18:03:17.691Z,7.85
2022-11-02T18:06:00.318Z,7.00
2022-11-02T18:08:29.543Z,7.10
2022-11-02T18:11:04.047Z,8.55
2022-11-02T18:17:11.325Z,5.95
2022-11-02T18:22:39.575Z,6.82
2022-11-02T18:29:20.978Z,6.25
2022-11-02T18:31:51.003Z,8.07
2022-11-02T18:34:19.182Z,6.93
2022-11-02T18:36:50.262Z,16.33
2022-11-02T18:39:20.157Z,7.90
2022-11-02T18:41:48.305Z,10.75
2022-11-02T18:44:16.434Z,8.18
2022-11-02T18:46:44.548Z,8.20
2022-11-02T18:49:12.714Z,10.65
2022-11-02T18:51:45.725Z,11.75
2022-11-02T18:54:14.983Z,6.55
2022-11-02T18:56:44.376Z,6.32
2022-11-02T18:59:15.158Z,8.55
2022-11-02T19:01:43.564Z,11.10
2022-11-02T19:04:17.197Z,10.32
2022-11-02T19:07:03.628Z,5.80
2022-11-02T19:09:33.548Z,9.63
2022-11-02T19:12:08.939Z,12.85
2022-11-02T19:14:39.096Z,9.30
2022-11-02T19:17:07.948Z,9.57
2022-11-02T19:19:36.426Z,10.73
2022-11-02T19:22:04.928Z,11.63
2022-11-02T19:24:32.973Z,9.80
2022-11-02T19:27:00.989Z,9.75
2022-11-02T19:29:30.534Z,10.07
2022-11-02T19:31:58.622Z,10.30
2022-11-02T19:34:26.819Z,7.85
2022-11-02T19:36:54.861Z,8.57
2022-11-02T19:39:23.179Z,8.95
2022-11-02T19:41:52.429Z,8.15
2022-11-02T19:44:20.751Z,8.38
2022-11-02T19:46:50.484Z,7.00
2022-11-02T19:49:18.960Z,8.52
2022-11-02T19:51:47.304Z,11.45
2022-11-02T19:54:15.723Z,11.07
2022-11-02T19:56:43.983Z,8.90
2022-11-02T19:59:12.890Z,11.45
2022-11-02T20:01:46.243Z,8.48
2022-11-02T20:04:15.799Z,7.30
2022-11-02T20:06:45.088Z,11.25
2022-11-02T20:09:19.401Z,10.05
2022-11-02T20:11:48.339Z,5.45
2022-11-02T20:14:17.855Z,9.18
2022-11-02T20:16:58.302Z,10.85
2022-11-02T20:19:28.360Z,9.02
2022-11-02T20:21:56.435Z,11.13
2022-11-02T20:24:24.385Z,9.70
2022-11-02T20:26:56.147Z,9.35
2022-11-02T20:29:24.307Z,12.02
2022-11-02T20:31:52.276Z,11.32
2022-11-02T20:34:20.408Z,7.82
2022-11-02T20:36:49.962Z,10.80
2022-11-02T20:39:18.166Z,11.73
2022-11-02T20:41:46.281Z,11.90
2022-11-02T20:44:14.666Z,8.60
2022-11-02T20:46:50.070Z,10.10
2022-11-02T20:49:36.451Z,7.80
2022-11-02T20:52:10.760Z,7.95
2022-11-02T20:54:38.728Z,8.73
2022-11-02T20:57:06.993Z,13.00
2022-11-02T20:59:35.458Z,6.63
2022-11-02T21:02:03.559Z,8.13
2022-11-02T21:04:31.831Z,7.70
2022-11-02T21:06:59.933Z,8.60
2022-11-02T21:09:30.490Z,9.02
2022-11-02T21:12:15.833Z,5.97
2022-11-02T21:14:43.866Z,8.30
2022-11-02T21:17:12.044Z,9.68
2022-11-02T21:19:40.047Z,11.82
2022-11-02T21:22:08.072Z,12.13
2022-11-02T21:24:37.448Z,12.25
2022-11-02T21:27:06.843Z,10.43
2022-11-02T21:29:34.887Z,13.82
2022-11-02T21:32:02.903Z,11.32
2022-11-02T21:34:30.877Z,9.52
2022-11-02T21:36:58.901Z,9.45
2022-11-02T21:39:27.008Z,8.88
2022-11-02T21:41:56.330Z,10.05
2022-11-02T21:44:26.134Z,9.43
2022-11-02T21:46:54.257Z,8.52
2022-11-02T21:49:22.291Z,8.70
2022-11-02T21:51:50.315Z,8.07
2022-11-02T21:54:18.351Z,9.25
2022-11-02T21:56:48.290Z,10.10
2022-11-02T21:59:17.597Z,6.10
2022-11-02T22:01:45.204Z,7.65
2022-11-02T22:04:14.882Z,10.30
2022-11-02T22:06:43.937Z,9.95
2022-11-02T22:09:13.518Z,8.77
2022-11-02T22:11:42.677Z,8.65
2022-11-02T22:14:10.762Z,11.73
2022-11-02T22:16:41.334Z,8.48
2022-11-02T22:19:11.093Z,12.80
2022-11-02T22:21:42.111Z,14.32
2022-11-02T22:24:11.098Z,9.77
2022-11-02T22:26:40.100Z,10.43
2022-11-02T22:29:08.245Z,9.40
2022-11-02T22:31:38.656Z,14.70
2022-11-02T22:34:10.283Z,14.00
2022-11-02T22:36:39.527Z,10.88
2022-11-02T22:39:08.079Z,9.38
2022-11-02T22:41:37.450Z,12.90
2022-11-02T22:44:07.089Z,12.95
2022-11-02T22:46:37.755Z,6.93
2022-11-02T22:49:08.250Z,10.05
2022-11-02T22:51:38.287Z,10.10
2022-11-02T22:54:08.495Z,7.97
2022-11-02T22:56:36.591Z,10.30
2022-11-02T22:59:05.318Z,13.30
2022-11-02T23:01:34.561Z,11.07
2022-11-02T23:04:03.302Z,7.90
2022-11-02T23:06:33.653Z,8.63
2022-11-02T23:09:02.276Z,7.20
2022-11-02T23:11:32.151Z,8.32
2022-11-02T23:14:02.066Z,6.93
2022-11-02T23:16:31.496Z,10.65
2022-11-02T23:19:25.170Z,10.50
2022-11-02T23:22:16.097Z,7.85
2022-11-02T23:25:03.431Z,10.65
2022-11-02T23:27:32.010Z,11.77
2022-11-02T23:30:17.754Z,10.27
2022-11-02T23:32:45.712Z,10.88
2022-11-02T23:35:31.421Z,9.35
2022-11-02T23:38:05.185Z,6.53
2022-11-02T23:40:33.939Z,6.45
2022-11-02T23:43:03.044Z,10.70
2022-11-02T23:45:31.344Z,12.20
2022-11-02T23:48:00.758Z,12.60
2022-11-02T23:50:48.786Z,9.20
2022-11-02T23:53:37.053Z,11.02
2022-11-02T23:56:23.456Z,6.35
2022-11-02T23:59:06.454Z,18.33
